sensor_id;sensor_type;location;lat;lon;timestamp;pressure;altitude;pressure_sealevel;temperature;humidity
67842;BME280;54642;59.126;37.876;2023-03-21T00:00:37;99161.91;;;4.54;59.40
67842;BME280;54642;59.126;37.876;2023-03-21T00:03:03;99213.41;;;4.85;59.39
67842;BME280;54642;59.126;37.876;2023-03-21T00:05:29;99219.44;;;4.88;59.17
67842;BME280;54642;59.126;37.876;2023-03-21T00:07:55;99151.66;;;4.54;59.14
67842;BME280;54642;59.126;37.876;2023-03-21T00:10:21;99200.56;;;4.80;59.07
67842;BME280;54642;59.126;37.876;2023-03-21T00:12:47;99191.94;;;4.69;59.27
67842;BME280;54642;59.126;37.876;2023-03-21T00:15:24;99167.97;;;4.62;59.06
67842;BME280;54642;59.126;37.876;2023-03-21T00:17:55;99188.53;;;4.73;59.27
67842;BME280;54642;59.126;37.876;2023-03-21T00:20:32;99207.41;;;4.86;59.15
67842;BME280;54642;59.126;37.876;2023-03-21T00:23:03;99201.41;;;4.81;59.19
67842;BME280;54642;59.126;37.876;2023-03-21T00:25:29;99210.84;;;4.89;59.30
67842;BME280;54642;59.126;37.876;2023-03-21T00:27:57;99192.84;;;4.78;59.26
67842;BME280;54642;59.126;37.876;2023-03-21T00:30:23;99189.38;;;4.72;59.02
67842;BME280;54642;59.126;37.876;2023-03-21T00:32:49;99183.41;;;4.73;59.25
67842;BME280;54642;59.126;37.876;2023-03-21T00:35:15;99167.97;;;4.64;59.35
67842;BME280;54642;59.126;37.876;2023-03-21T00:37:41;99124.25;;;4.42;59.04
67842;BME280;54642;59.126;37.876;2023-03-21T00:40:10;99183.41;;;4.79;59.31
67842;BME280;54642;59.126;37.876;2023-03-21T00:42:37;99214.28;;;4.87;59.14
67842;BME280;54642;59.126;37.876;2023-03-21T00:45:04;99087.34;;;4.14;59.16
67842;BME280;54642;59.126;37.876;2023-03-21T00:47:32;99153.41;;;4.63;59.26
67842;BME280;54642;59.126;37.876;2023-03-21T00:49:58;99145.69;;;4.56;59.32
67842;BME280;54642;59.126;37.876;2023-03-21T00:52:24;99110.53;;;4.37;59.43
67842;BME280;54642;59.126;37.876;2023-03-21T00:54:50;99110.47;;;4.23;59.25
67842;BME280;54642;59.126;37.876;2023-03-21T00:57:16;99029.91;;;3.79;59.36
67842;BME280;54642;59.126;37.876;2023-03-21T00:59:43;99168.91;;;4.80;59.43
67842;BME280;54642;59.126;37.876;2023-03-21T01:02:09;99167.16;;;4.72;59.50
67842;BME280;54642;59.126;37.876;2023-03-21T01:04:39;99166.31;;;4.75;59.53
67842;BME280;54642;59.126;37.876;2023-03-21T01:07:05;99165.47;;;4.76;59.59
67842;BME280;54642;59.126;37.876;2023-03-21T01:09:31;99169.75;;;4.78;59.58
67842;BME280;54642;59.126;37.876;2023-03-21T01:11:57;99144.06;;;4.71;59.36
67842;BME280;54642;59.126;37.876;2023-03-21T01:14:23;99106.28;;;4.42;59.59
67842;BME280;54642;59.126;37.876;2023-03-21T01:16:51;99114.03;;;4.50;59.36
67842;BME280;54642;59.126;37.876;2023-03-21T01:19:19;99145.75;;;4.75;59.39
67842;BME280;54642;59.126;37.876;2023-03-21T01:21:46;99165.44;;;4.74;59.42
67842;BME280;54642;59.126;37.876;2023-03-21T01:24:12;99144.88;;;4.70;59.46
67842;BME280;54642;59.126;37.876;2023-03-21T01:26:38;99112.31;;;4.52;59.59
67842;BME280;54642;59.126;37.876;2023-03-21T01:29:04;99145.72;;;4.70;59.69
67842;BME280;54642;59.126;37.876;2023-03-21T01:31:31;99105.47;;;4.48;59.77
67842;BME280;54642;59.126;37.876;2023-03-21T01:33:57;99049.75;;;4.17;59.52
67842;BME280;54642;59.126;37.876;2023-03-21T01:36:24;99140.63;;;4.73;59.45
67842;BME280;54642;59.126;37.876;2023-03-21T01:38:54;99146.63;;;4.74;59.60
67842;BME280;54642;59.126;37.876;2023-03-21T01:41:28;99060.91;;;4.23;59.76
67842;BME280;54642;59.126;37.876;2023-03-21T01:43:55;99140.63;;;4.72;59.67
67842;BME280;54642;59.126;37.876;2023-03-21T01:46:40;99146.63;;;4.72;59.79
67842;BME280;54642;59.126;37.876;2023-03-21T01:49:39;99107.16;;;4.49;59.57
67842;BME280;54642;59.126;37.876;2023-03-21T01:52:17;99126.03;;;4.65;59.55
67842;BME280;54642;59.126;37.876;2023-03-21T01:54:46;99114.91;;;4.55;59.76
67842;BME280;54642;59.126;37.876;2023-03-21T01:57:24;99066.91;;;4.28;59.65
67842;BME280;54642;59.126;37.876;2023-03-21T01:59:58;99134.63;;;4.71;59.62
67842;BME280;54642;59.126;37.876;2023-03-21T02:02:52;99132.06;;;4.73;59.67
67842;BME280;54642;59.126;37.876;2023-03-21T02:05:51;99104.66;;;4.56;59.71
67842;BME280;54642;59.126;37.876;2023-03-21T02:08:20;99052.28;;;4.08;59.68
67842;BME280;54642;59.126;37.876;2023-03-21T02:10:49;99061.81;;;4.37;59.69
67842;BME280;54642;59.126;37.876;2023-03-21T02:13:25;99113.22;;;4.68;59.79
67842;BME280;54642;59.126;37.876;2023-03-21T02:16:00;99078.97;;;4.47;59.88
67842;BME280;54642;59.126;37.876;2023-03-21T02:18:43;99127.78;;;4.67;59.89
67842;BME280;54642;59.126;37.876;2023-03-21T02:27:05;99032.66;;;4.13;59.84
67842;BME280;54642;59.126;37.876;2023-03-21T02:29:51;99084.91;;;4.38;60.19
67842;BME280;54642;59.126;37.876;2023-03-21T02:32:57;99102.88;;;4.40;60.05
67842;BME280;54642;59.126;37.876;2023-03-21T02:38:26;99102.03;;;4.52;60.19
67842;BME280;54642;59.126;37.876;2023-03-21T02:43:53;99081.44;;;4.32;60.13
67842;BME280;54642;59.126;37.876;2023-03-21T02:46:36;99098.59;;;4.45;60.27
67842;BME280;54642;59.126;37.876;2023-03-21T02:49:21;99089.19;;;4.41;60.48
67842;BME280;54642;59.126;37.876;2023-03-21T02:51:49;99074.59;;;4.32;60.26
67842;BME280;54642;59.126;37.876;2023-03-21T02:54:18;99083.16;;;4.31;60.40
67842;BME280;54642;59.126;37.876;2023-03-21T02:56:48;99072.88;;;4.28;60.52
67842;BME280;54642;59.126;37.876;2023-03-21T02:59:16;99087.44;;;4.34;60.33
67842;BME280;54642;59.126;37.876;2023-03-21T03:01:45;99025.72;;;3.97;60.49
67842;BME280;54642;59.126;37.876;2023-03-21T03:04:25;99026.59;;;4.02;60.64
67842;BME280;54642;59.126;37.876;2023-03-21T03:07:25;99072.91;;;4.30;60.78
67842;BME280;54642;59.126;37.876;2023-03-21T03:10:06;99075.41;;;4.24;60.44
67842;BME280;54642;59.126;37.876;2023-03-21T03:18:46;99066.84;;;4.15;60.66
67842;BME280;54642;59.126;37.876;2023-03-21T03:26:24;99006.03;;;3.91;60.66
67842;BME280;54642;59.126;37.876;2023-03-21T03:28:57;99049.78;;;4.20;60.79
67842;BME280;54642;59.126;37.876;2023-03-21T03:31:31;99026.63;;;4.08;60.79
67842;BME280;54642;59.126;37.876;2023-03-21T03:34:05;98998.31;;;3.84;60.80
67842;BME280;54642;59.126;37.876;2023-03-21T03:36:39;99020.66;;;4.06;60.97
67842;BME280;54642;59.126;37.876;2023-03-21T03:39:12;98976.91;;;3.75;60.67
67842;BME280;54642;59.126;37.876;2023-03-21T03:41:46;99034.31;;;4.07;61.11
67842;BME280;54642;59.126;37.876;2023-03-21T03:44:13;99034.28;;;3.99;60.96
67842;BME280;54642;59.126;37.876;2023-03-21T03:47:00;99030.03;;;4.01;61.17
67842;BME280;54642;59.126;37.876;2023-03-21T03:49:31;99018.91;;;3.99;61.10
67842;BME280;54642;59.126;37.876;2023-03-21T03:52:20;99020.59;;;3.94;61.13
67842;BME280;54642;59.126;37.876;2023-03-21T03:54:55;99007.72;;;3.86;61.08
67842;BME280;54642;59.126;37.876;2023-03-21T03:57:26;99025.72;;;3.94;61.22
67842;BME280;54642;59.126;37.876;2023-03-21T03:59:53;98982.84;;;3.65;61.35
67842;BME280;54642;59.126;37.876;2023-03-21T04:02:42;99018.84;;;3.88;61.27
67842;BME280;54642;59.126;37.876;2023-03-21T04:05:11;99019.72;;;3.90;61.20
67842;BME280;54642;59.126;37.876;2023-03-21T04:07:38;98971.72;;;3.65;61.21
67842;BME280;54642;59.126;37.876;2023-03-21T04:10:04;99011.19;;;3.94;61.07
67842;BME280;54642;59.126;37.876;2023-03-21T04:12:37;98920.34;;;3.35;61.16
67842;BME280;54642;59.126;37.876;2023-03-21T04:15:17;99012.06;;;3.98;61.14
67842;BME280;54642;59.126;37.876;2023-03-21T04:17:48;99021.44;;;4.00;61.19
67842;BME280;54642;59.126;37.876;2023-03-21T04:20:15;99006.91;;;3.95;61.11
67842;BME280;54642;59.126;37.876;2023-03-21T04:22:41;98941.00;;;3.66;61.01
67842;BME280;54642;59.126;37.876;2023-03-21T04:25:08;99016.38;;;4.05;61.07
67842;BME280;54642;59.126;37.876;2023-03-21T04:27:34;98972.72;;;3.91;61.22
67842;BME280;54642;59.126;37.876;2023-03-21T04:30:23;98989.84;;;3.94;61.16
67842;BME280;54642;59.126;37.876;2023-03-21T04:33:15;98947.88;;;3.76;60.85
67842;BME280;54642;59.126;37.876;2023-03-21T04:35:49;99003.59;;;4.16;60.96
67842;BME280;54642;59.126;37.876;2023-03-21T04:38:16;98911.09;;;3.60;60.79
67842;BME280;54642;59.126;37.876;2023-03-21T04:40:42;98999.34;;;4.21;60.76
67842;BME280;54642;59.126;37.876;2023-03-21T04:43:08;98987.34;;;4.18;60.85
67842;BME280;54642;59.126;37.876;2023-03-21T04:45:37;98993.41;;;4.33;60.68
67842;BME280;54642;59.126;37.876;2023-03-21T04:48:04;98981.41;;;4.32;60.58
67842;BME280;54642;59.126;37.876;2023-03-21T04:50:31;98976.31;;;4.35;60.56
67842;BME280;54642;59.126;37.876;2023-03-21T04:52:58;98981.47;;;4.47;60.31
67842;BME280;54642;59.126;37.876;2023-03-21T04:55:25;98975.50;;;4.59;60.38
67842;BME280;54642;59.126;37.876;2023-03-21T04:57:52;98966.06;;;4.59;59.91
67842;BME280;54642;59.126;37.876;2023-03-21T05:00:20;98913.03;;;4.37;60.23
67842;BME280;54642;59.126;37.876;2023-03-21T05:02:47;98968.66;;;4.73;60.18
67842;BME280;54642;59.126;37.876;2023-03-21T05:05:13;98942.13;;;4.61;60.25
67842;BME280;54642;59.126;37.876;2023-03-21T05:07:40;98945.56;;;4.72;60.05
67842;BME280;54642;59.126;37.876;2023-03-21T05:10:08;98914.75;;;4.59;60.18
67842;BME280;54642;59.126;37.876;2023-03-21T05:12:35;98954.13;;;4.91;59.82
67842;BME280;54642;59.126;37.876;2023-03-21T05:15:01;98915.63;;;4.69;59.80
67842;BME280;54642;59.126;37.876;2023-03-21T05:17:27;98922.50;;;4.80;59.64
67842;BME280;54642;59.126;37.876;2023-03-21T05:19:55;98955.84;;;5.00;59.59
67842;BME280;54642;59.126;37.876;2023-03-21T05:22:22;98948.16;;;5.01;59.46
67842;BME280;54642;59.126;37.876;2023-03-21T05:24:51;98912.19;;;4.83;59.42
67842;BME280;54642;59.126;37.876;2023-03-21T05:27:44;98954.97;;;5.11;59.08
67842;BME280;54642;59.126;37.876;2023-03-21T05:30:15;98961.81;;;5.25;59.14
67842;BME280;54642;59.126;37.876;2023-03-21T05:32:41;98954.13;;;5.29;59.11
67842;BME280;54642;59.126;37.876;2023-03-21T05:35:11;98897.66;;;5.05;59.04
67842;BME280;54642;59.126;37.876;2023-03-21T05:37:37;98943.00;;;5.35;59.00
67842;BME280;54642;59.126;37.876;2023-03-21T05:40:05;98937.84;;;5.33;58.67
67842;BME280;54642;59.126;37.876;2023-03-21T05:42:32;98893.34;;;5.11;58.72
67842;BME280;54642;59.126;37.876;2023-03-21T05:45:00;98942.06;;;5.62;58.43
67842;BME280;54642;59.126;37.876;2023-03-21T05:47:31;98934.91;;;7.42;55.01
67842;BME280;54642;59.126;37.876;2023-03-21T05:49:59;98933.56;;;9.07;51.41
67842;BME280;54642;59.126;37.876;2023-03-21T05:52:25;98934.75;;;9.84;49.11
67842;BME280;54642;59.126;37.876;2023-03-21T05:54:53;98890.53;;;9.95;47.95
67842;BME280;54642;59.126;37.876;2023-03-21T05:57:22;98942.00;;;10.09;47.84
67842;BME280;54642;59.126;37.876;2023-03-21T05:59:55;98924.19;;;9.03;49.44
67842;BME280;54642;59.126;37.876;2023-03-21T06:02:21;98933.16;;;8.18;51.58
67842;BME280;54642;59.126;37.876;2023-03-21T06:04:48;98936.34;;;7.69;53.19
67842;BME280;54642;59.126;37.876;2023-03-21T06:07:13;98906.75;;;7.20;53.94
67842;BME280;54642;59.126;37.876;2023-03-21T06:09:40;98937.88;;;6.99;55.08
67842;BME280;54642;59.126;37.876;2023-03-21T06:12:06;98916.44;;;6.95;55.52
67842;BME280;54642;59.126;37.876;2023-03-21T06:14:51;98907.84;;;6.98;55.69
67842;BME280;54642;59.126;37.876;2023-03-21T06:17:27;98923.19;;;7.10;55.60
67842;BME280;54642;59.126;37.876;2023-03-21T06:19:59;98913.66;;;7.18;55.74
67842;BME280;54642;59.126;37.876;2023-03-21T06:22:38;98863.34;;;6.85;55.49
67842;BME280;54642;59.126;37.876;2023-03-21T06:25:05;98909.22;;;7.33;55.37
67842;BME280;54642;59.126;37.876;2023-03-21T06:27:33;98905.66;;;7.46;55.32
67842;BME280;54642;59.126;37.876;2023-03-21T06:29:59;98893.66;;;7.43;54.77
67842;BME280;54642;59.126;37.876;2023-03-21T06:32:27;98862.16;;;7.15;55.11
67842;BME280;54642;59.126;37.876;2023-03-21T06:34:57;98857.06;;;7.11;54.92
67842;BME280;54642;59.126;37.876;2023-03-21T06:37:23;98900.03;;;7.10;55.16
67842;BME280;54642;59.126;37.876;2023-03-21T06:39:51;98887.25;;;6.99;55.23
67842;BME280;54642;59.126;37.876;2023-03-21T06:42:19;98897.44;;;7.09;55.59
67842;BME280;54642;59.126;37.876;2023-03-21T06:44:45;98892.34;;;7.02;55.41
67842;BME280;54642;59.126;37.876;2023-03-21T06:47:13;98837.72;;;6.68;55.67
67842;BME280;54642;59.126;37.876;2023-03-21T06:49:42;98859.03;;;6.82;55.75
67842;BME280;54642;59.126;37.876;2023-03-21T06:52:10;98886.38;;;6.99;55.94
67842;BME280;54642;59.126;37.876;2023-03-21T06:54:37;98870.19;;;6.84;55.81
67842;BME280;54642;59.126;37.876;2023-03-21T06:57:09;98875.28;;;6.92;56.45
67842;BME280;54642;59.126;37.876;2023-03-21T06:59:37;98873.44;;;7.03;56.32
67842;BME280;54642;59.126;37.876;2023-03-21T07:02:10;98869.13;;;7.09;56.21
67842;BME280;54642;59.126;37.876;2023-03-21T07:04:40;98869.94;;;7.11;55.93
67842;BME280;54642;59.126;37.876;2023-03-21T07:07:12;98869.97;;;7.07;56.06
67842;BME280;54642;59.126;37.876;2023-03-21T07:09:39;98868.25;;;7.08;56.27
67842;BME280;54642;59.126;37.876;2023-03-21T07:12:05;98860.59;;;7.02;56.09
67842;BME280;54642;59.126;37.876;2023-03-21T07:14:45;98853.81;;;6.93;56.18
67842;BME280;54642;59.126;37.876;2023-03-21T07:17:11;98850.41;;;6.88;56.29
67842;BME280;54642;59.126;37.876;2023-03-21T07:19:37;98860.78;;;6.83;56.52
67842;BME280;54642;59.126;37.876;2023-03-21T07:22:03;98855.53;;;6.93;56.36
67842;BME280;54642;59.126;37.876;2023-03-21T07:24:29;98831.50;;;6.91;56.40
67842;BME280;54642;59.126;37.876;2023-03-21T07:26:55;98862.13;;;7.18;56.24
67842;BME280;54642;59.126;37.876;2023-03-21T07:29:21;98855.28;;;7.17;56.07
67842;BME280;54642;59.126;37.876;2023-03-21T07:31:48;98865.63;;;7.14;56.03
67842;BME280;54642;59.126;37.876;2023-03-21T07:34:14;98851.84;;;7.15;56.24
67842;BME280;54642;59.126;37.876;2023-03-21T07:36:41;98853.50;;;7.22;56.26
67842;BME280;54642;59.126;37.876;2023-03-21T07:39:07;98856.06;;;7.24;56.12
67842;BME280;54642;59.126;37.876;2023-03-21T07:41:33;98804.84;;;6.98;56.11
67842;BME280;54642;59.126;37.876;2023-03-21T07:44:10;98847.25;;;7.42;55.97
67842;BME280;54642;59.126;37.876;2023-03-21T07:46:36;98841.13;;;7.52;55.95
67842;BME280;54642;59.126;37.876;2023-03-21T07:49:02;98824.03;;;7.45;55.82
67842;BME280;54642;59.126;37.876;2023-03-21T07:51:28;98829.97;;;7.52;55.97
67842;BME280;54642;59.126;37.876;2023-03-21T07:53:54;98835.16;;;7.50;55.87
67842;BME280;54642;59.126;37.876;2023-03-21T07:56:20;98832.44;;;7.62;55.69
67842;BME280;54642;59.126;37.876;2023-03-21T07:58:46;98826.44;;;7.60;55.72
67842;BME280;54642;59.126;37.876;2023-03-21T08:01:12;98817.09;;;7.50;55.99
67842;BME280;54642;59.126;37.876;2023-03-21T08:03:38;98778.56;;;7.39;55.62
67842;BME280;54642;59.126;37.876;2023-03-21T08:06:04;98820.22;;;7.75;55.60
67842;BME280;54642;59.126;37.876;2023-03-21T08:08:30;98817.63;;;7.75;55.63
67842;BME280;54642;59.126;37.876;2023-03-21T08:10:56;98795.25;;;7.77;55.59
67842;BME280;54642;59.126;37.876;2023-03-21T08:13:22;98807.84;;;7.99;55.33
67842;BME280;54642;59.126;37.876;2023-03-21T08:15:48;98796.47;;;8.12;55.17
67842;BME280;54642;59.126;37.876;2023-03-21T08:18:14;98795.53;;;8.18;55.06
67842;BME280;54642;59.126;37.876;2023-03-21T08:20:40;98795.50;;;8.21;54.91
67842;BME280;54642;59.126;37.876;2023-03-21T08:23:05;98798.13;;;8.18;54.92
67842;BME280;54642;59.126;37.876;2023-03-21T08:25:32;98794.44;;;8.33;54.89
67842;BME280;54642;59.126;37.876;2023-03-21T08:27:58;98786.81;;;8.25;54.71
67842;BME280;54642;59.126;37.876;2023-03-21T08:30:26;98809.06;;;8.32;54.64
67842;BME280;54642;59.126;37.876;2023-03-21T08:32:59;98808.34;;;8.23;54.76
67842;BME280;54642;59.126;37.876;2023-03-21T08:35:26;98724.09;;;7.66;54.84
67842;BME280;54642;59.126;37.876;2023-03-21T08:37:52;98790.66;;;7.99;54.94
67842;BME280;54642;59.126;37.876;2023-03-21T08:40:18;98796.56;;;8.06;55.08
67842;BME280;54642;59.126;37.876;2023-03-21T08:42:45;98793.97;;;8.08;55.20
67842;BME280;54642;59.126;37.876;2023-03-21T08:45:13;98786.31;;;8.03;55.05
67842;BME280;54642;59.126;37.876;2023-03-21T08:47:40;98790.50;;;8.10;54.93
67842;BME280;54642;59.126;37.876;2023-03-21T08:50:07;98811.88;;;8.17;54.99
67842;BME280;54642;59.126;37.876;2023-03-21T08:52:35;98793.78;;;8.18;54.83
67842;BME280;54642;59.126;37.876;2023-03-21T08:55:02;98784.22;;;8.25;54.91
67842;BME280;54642;59.126;37.876;2023-03-21T08:57:29;98779.09;;;8.24;54.64
67842;BME280;54642;59.126;37.876;2023-03-21T08:59:55;98776.50;;;8.25;54.73
67842;BME280;54642;59.126;37.876;2023-03-21T09:02:21;98774.63;;;8.33;54.68
67842;BME280;54642;59.126;37.876;2023-03-21T09:04:47;98783.78;;;8.53;54.47
67842;BME280;54642;59.126;37.876;2023-03-21T09:07:13;98782.75;;;8.65;54.30
67842;BME280;54642;59.126;37.876;2023-03-21T09:09:42;98781.72;;;8.73;54.00
67842;BME280;54642;59.126;37.876;2023-03-21T09:12:08;98778.41;;;8.67;53.75
67842;BME280;54642;59.126;37.876;2023-03-21T09:14:34;98775.75;;;8.71;54.03
67842;BME280;54642;59.126;37.876;2023-03-21T09:17:00;98760.28;;;8.68;53.99
67842;BME280;54642;59.126;37.876;2023-03-21T09:19:26;98755.00;;;8.74;53.66
67842;BME280;54642;59.126;37.876;2023-03-21T09:21:53;98763.66;;;8.73;54.12
67842;BME280;54642;59.126;37.876;2023-03-21T09:24:20;98729.81;;;8.39;53.93
67842;BME280;54642;59.126;37.876;2023-03-21T09:26:46;98752.00;;;8.51;53.91
67842;BME280;54642;59.126;37.876;2023-03-21T09:29:17;98701.84;;;8.13;54.29
67842;BME280;54642;59.126;37.876;2023-03-21T09:31:45;98777.13;;;8.38;54.46
67842;BME280;54642;59.126;37.876;2023-03-21T09:34:12;98760.00;;;8.35;54.59
67842;BME280;54642;59.126;37.876;2023-03-21T09:36:40;98764.09;;;8.49;54.56
67842;BME280;54642;59.126;37.876;2023-03-21T09:39:06;98758.09;;;8.47;54.62
67842;BME280;54642;59.126;37.876;2023-03-21T09:41:42;98752.88;;;8.51;54.54
67842;BME280;54642;59.126;37.876;2023-03-21T09:49:41;98759.25;;;8.27;55.03
67842;BME280;54642;59.126;37.876;2023-03-21T09:52:26;98762.56;;;8.35;55.00
67842;BME280;54642;59.126;37.876;2023-03-21T09:54:54;98760.16;;;8.25;55.08
67842;BME280;54642;59.126;37.876;2023-03-21T09:57:41;98732.94;;;8.07;55.12
67842;BME280;54642;59.126;37.876;2023-03-21T10:00:23;98761.84;;;8.26;55.04
67842;BME280;54642;59.126;37.876;2023-03-21T10:02:53;98753.16;;;8.31;55.16
67842;BME280;54642;59.126;37.876;2023-03-21T10:05:26;98755.72;;;8.31;55.10
67842;BME280;54642;59.126;37.876;2023-03-21T10:08:08;98760.78;;;8.39;54.84
67842;BME280;54642;59.126;37.876;2023-03-21T10:10:50;98754.03;;;8.32;55.13
67842;BME280;54642;59.126;37.876;2023-03-21T10:13:30;98758.13;;;8.44;55.28
67842;BME280;54642;59.126;37.876;2023-03-21T10:15:59;98751.28;;;8.43;55.24
67842;BME280;54642;59.126;37.876;2023-03-21T10:18:29;98709.75;;;8.04;55.34
67842;BME280;54642;59.126;37.876;2023-03-21T10:20:55;98749.97;;;8.15;55.44
67842;BME280;54642;59.126;37.876;2023-03-21T10:23:25;98746.63;;;8.10;55.77
67842;BME280;54642;59.126;37.876;2023-03-21T10:26:04;98730.34;;;8.07;55.57
67842;BME280;54642;59.126;37.876;2023-03-21T10:28:35;98664.00;;;7.60;55.83
67842;BME280;54642;59.126;37.876;2023-03-21T10:31:04;98704.13;;;7.80;55.76
67842;BME280;54642;59.126;37.876;2023-03-21T10:33:37;98742.41;;;8.05;56.13
67842;BME280;54642;59.126;37.876;2023-03-21T10:36:07;98738.91;;;8.09;55.91
67842;BME280;54642;59.126;37.876;2023-03-21T10:38:34;98699.72;;;7.85;56.19
67842;BME280;54642;59.126;37.876;2023-03-21T10:41:03;98669.88;;;7.69;56.03
67842;BME280;54642;59.126;37.876;2023-03-21T10:43:35;98726.97;;;8.03;56.00
67842;BME280;54642;59.126;37.876;2023-03-21T10:46:18;98734.56;;;8.11;56.17
67842;BME280;54642;59.126;37.876;2023-03-21T10:48:52;98687.56;;;7.92;56.21
67842;BME280;54642;59.126;37.876;2023-03-21T10:51:22;98719.06;;;8.14;55.97
67842;BME280;54642;59.126;37.876;2023-03-21T10:54:11;98719.81;;;8.19;56.20
67842;BME280;54642;59.126;37.876;2023-03-21T10:56:59;98678.97;;;7.93;55.83
67842;BME280;54642;59.126;37.876;2023-03-21T10:59:35;98705.28;;;8.13;55.95
67842;BME280;54642;59.126;37.876;2023-03-21T11:02:04;98628.63;;;7.69;56.16
67842;BME280;54642;59.126;37.876;2023-03-21T11:04:30;98657.72;;;7.78;56.24
67842;BME280;54642;59.126;37.876;2023-03-21T11:06:59;98717.56;;;7.97;56.37
67842;BME280;54642;59.126;37.876;2023-03-21T11:09:46;98723.59;;;7.98;56.54
67842;BME280;54642;59.126;37.876;2023-03-21T11:12:18;98705.66;;;7.90;56.58
67842;BME280;54642;59.126;37.876;2023-03-21T11:14:52;98680.28;;;7.66;56.71
67842;BME280;54642;59.126;37.876;2023-03-21T11:17:21;98705.75;;;7.84;56.75
67842;BME280;54642;59.126;37.876;2023-03-21T11:22:15;98672.56;;;7.62;57.14
67842;BME280;54642;59.126;37.876;2023-03-21T11:24:50;98720.16;;;7.97;56.98
67842;BME280;54642;59.126;37.876;2023-03-21T11:27:17;98707.25;;;7.97;56.75
67842;BME280;54642;59.126;37.876;2023-03-21T11:29:48;98717.44;;;8.07;56.53
67842;BME280;54642;59.126;37.876;2023-03-21T11:35:00;98703.84;;;7.95;56.99
67842;BME280;54642;59.126;37.876;2023-03-21T11:42:41;98709.00;;;7.95;57.11
67842;BME280;54642;59.126;37.876;2023-03-21T11:45:12;98721.25;;;7.82;57.25
67842;BME280;54642;59.126;37.876;2023-03-21T11:47:39;98719.66;;;7.74;57.57
67842;BME280;54642;59.126;37.876;2023-03-21T11:58:28;98717.28;;;7.60;57.94
67842;BME280;54642;59.126;37.876;2023-03-21T12:01:02;98708.69;;;7.59;57.83
67842;BME280;54642;59.126;37.876;2023-03-21T12:06:52;98710.47;;;7.57;57.74
67842;BME280;54642;59.126;37.876;2023-03-21T12:09:33;98722.53;;;7.55;57.83
67842;BME280;54642;59.126;37.876;2023-03-21T12:12:05;98717.41;;;7.52;57.84
67842;BME280;54642;59.126;37.876;2023-03-21T12:17:23;98700.34;;;7.42;58.06
67842;BME280;54642;59.126;37.876;2023-03-21T12:23:04;98699.59;;;7.37;58.23
67842;BME280;54642;59.126;37.876;2023-03-21T12:31:27;98711.63;;;7.35;58.58
67842;BME280;54642;59.126;37.876;2023-03-21T12:34:24;98697.88;;;7.34;58.43
67842;BME280;54642;59.126;37.876;2023-03-21T12:39:42;98686.81;;;7.28;58.69
67842;BME280;54642;59.126;37.876;2023-03-21T12:45:11;98689.50;;;7.20;58.77
67842;BME280;54642;59.126;37.876;2023-03-21T12:47:43;98680.16;;;7.11;58.91
67842;BME280;54642;59.126;37.876;2023-03-21T12:50:14;98697.22;;;7.21;58.99
67842;BME280;54642;59.126;37.876;2023-03-21T12:52:50;98653.75;;;6.95;59.49
67842;BME280;54642;59.126;37.876;2023-03-21T12:55:31;98688.72;;;7.13;59.51
67842;BME280;54642;59.126;37.876;2023-03-21T12:58:03;98713.63;;;7.13;59.78
67842;BME280;54642;59.126;37.876;2023-03-21T13:00:44;98704.22;;;7.10;59.77
67842;BME280;54642;59.126;37.876;2023-03-21T13:03:18;98678.69;;;6.90;59.90
67842;BME280;54642;59.126;37.876;2023-03-21T13:05:55;98706.88;;;7.04;60.11
67842;BME280;54642;59.126;37.876;2023-03-21T13:11:04;98695.06;;;6.86;60.19
67842;BME280;54642;59.126;37.876;2023-03-21T13:16:47;98704.44;;;6.92;60.84
67842;BME280;54642;59.126;37.876;2023-03-21T13:22:14;98701.03;;;6.90;60.81
67842;BME280;54642;59.126;37.876;2023-03-21T13:24:56;98697.66;;;6.83;61.02
67842;BME280;54642;59.126;37.876;2023-03-21T13:27:36;98716.47;;;6.90;61.03
67842;BME280;54642;59.126;37.876;2023-03-21T13:30:27;98710.50;;;6.87;61.11
67842;BME280;54642;59.126;37.876;2023-03-21T13:35:37;98723.50;;;6.78;61.60
67842;BME280;54642;59.126;37.876;2023-03-21T13:38:14;98718.38;;;6.75;62.03
67842;BME280;54642;59.126;37.876;2023-03-21T13:40:50;98726.13;;;6.71;62.13
67842;BME280;54642;59.126;37.876;2023-03-21T13:43:43;98729.59;;;6.66;62.34
67842;BME280;54642;59.126;37.876;2023-03-21T13:46:14;98737.41;;;6.59;62.85
67842;BME280;54642;59.126;37.876;2023-03-21T13:48:59;98733.13;;;6.56;62.64
67842;BME280;54642;59.126;37.876;2023-03-21T13:54:03;98746.19;;;6.39;63.39
67842;BME280;54642;59.126;37.876;2023-03-21T13:59:16;98738.56;;;6.27;63.91
67842;BME280;54642;59.126;37.876;2023-03-21T14:04:38;98741.22;;;6.19;64.37
67842;BME280;54642;59.126;37.876;2023-03-21T14:07:18;98734.41;;;6.14;64.83
67842;BME280;54642;59.126;37.876;2023-03-21T14:09:49;98697.72;;;5.88;64.88
67842;BME280;54642;59.126;37.876;2023-03-21T14:12:25;98729.28;;;6.10;64.93
67842;BME280;54642;59.126;37.876;2023-03-21T14:15:02;98735.34;;;6.05;65.19
67842;BME280;54642;59.126;37.876;2023-03-21T14:17:31;98734.44;;;6.07;65.17
67842;BME280;54642;59.126;37.876;2023-03-21T14:20:22;98737.91;;;6.06;65.25
67842;BME280;54642;59.126;37.876;2023-03-21T14:22:49;98738.78;;;6.01;65.49
67842;BME280;54642;59.126;37.876;2023-03-21T14:25:17;98739.59;;;6.04;65.97
67842;BME280;54642;59.126;37.876;2023-03-21T14:27:48;98736.25;;;5.98;66.19
67842;BME280;54642;59.126;37.876;2023-03-21T14:30:22;98732.84;;;5.91;66.25
67842;BME280;54642;59.126;37.876;2023-03-21T14:32:49;98746.53;;;5.90;66.64
67842;BME280;54642;59.126;37.876;2023-03-21T14:35:15;98698.81;;;5.58;66.68
67842;BME280;54642;59.126;37.876;2023-03-21T14:37:44;98750.00;;;5.84;66.47
67842;BME280;54642;59.126;37.876;2023-03-21T14:40:25;98694.59;;;5.45;67.17
67842;BME280;54642;59.126;37.876;2023-03-21T14:42:52;98683.53;;;5.35;66.95
67842;BME280;54642;59.126;37.876;2023-03-21T14:45:25;98693.75;;;5.40;66.96
67842;BME280;54642;59.126;37.876;2023-03-21T14:50:54;98767.22;;;5.71;67.15